sensor_id;sensor_type;location;lat;lon;timestamp;pressure;altitude;pressure_sealevel;temperature;humidity
25638;BME280;13496;51.040;13.680;2024-03-08T00:01:28;100362.16;;;18.73;47.96
25638;BME280;13496;51.040;13.680;2024-03-08T00:06:30;100358.84;;;18.71;47.97
25638;BME280;13496;51.040;13.680;2024-03-08T00:11:32;100357.19;;;18.70;47.66
25638;BME280;13496;51.040;13.680;2024-03-08T00:16:33;100357.03;;;18.71;47.98
25638;BME280;13496;51.040;13.680;2024-03-08T00:21:36;100356.22;;;18.71;47.63
25638;BME280;13496;51.040;13.680;2024-03-08T00:26:38;100351.13;;;18.69;47.91
25638;BME280;13496;51.040;13.680;2024-03-08T00:31:40;100352.09;;;18.68;47.79
25638;BME280;13496;51.040;13.680;2024-03-08T00:36:42;100349.66;;;18.67;47.67
25638;BME280;13496;51.040;13.680;2024-03-08T00:41:43;100357.53;;;18.67;47.67
25638;BME280;13496;51.040;13.680;2024-03-08T00:46:46;100349.84;;;18.65;47.49
25638;BME280;13496;51.040;13.680;2024-03-08T00:51:47;100348.19;;;18.64;47.66
25638;BME280;13496;51.040;13.680;2024-03-08T00:56:49;100343.94;;;18.63;47.65
25638;BME280;13496;51.040;13.680;2024-03-08T01:01:52;100339.66;;;18.62;47.63
25638;BME280;13496;51.040;13.680;2024-03-08T01:06:53;100343.13;;;18.62;47.66
25638;BME280;13496;51.040;13.680;2024-03-08T01:11:55;100342.31;;;18.62;47.71
25638;BME280;13496;51.040;13.680;2024-03-08T01:16:57;100337.19;;;18.60;47.91
25638;BME280;13496;51.040;13.680;2024-03-08T01:21:59;100322.44;;;18.59;47.85
25638;BME280;13496;51.040;13.680;2024-03-08T01:27:01;100324.25;;;18.59;47.70
25638;BME280;13496;51.040;13.680;2024-03-08T01:32:04;100315.69;;;18.57;47.73
25638;BME280;13496;51.040;13.680;2024-03-08T01:37:07;100307.19;;;18.55;47.61
25638;BME280;13496;51.040;13.680;2024-03-08T01:42:09;100301.94;;;18.55;47.64
25638;BME280;13496;51.040;13.680;2024-03-08T01:47:14;100291.44;;;18.55;47.83
25638;BME280;13496;51.040;13.680;2024-03-08T01:52:16;100281.25;;;18.52;47.80
25638;BME280;13496;51.040;13.680;2024-03-08T01:57:22;100279.63;;;18.51;47.67
25638;BME280;13496;51.040;13.680;2024-03-08T02:02:24;100285.69;;;18.51;47.74
25638;BME280;13496;51.040;13.680;2024-03-08T02:07:26;100277.63;;;18.53;47.71
25638;BME280;13496;51.040;13.680;2024-03-08T02:12:28;100278.97;;;18.49;47.76
25638;BME280;13496;51.040;13.680;2024-03-08T02:17:30;100272.72;;;18.50;47.84
25638;BME280;13496;51.040;13.680;2024-03-08T02:22:32;100276.34;;;18.49;47.85
25638;BME280;13496;51.040;13.680;2024-03-08T02:27:34;100256.94;;;18.50;47.87
25638;BME280;13496;51.040;13.680;2024-03-08T02:32:35;100258.94;;;18.48;47.89
25638;BME280;13496;51.040;13.680;2024-03-08T02:37:37;100258.13;;;18.47;47.83
25638;BME280;13496;51.040;13.680;2024-03-08T02:42:40;100252.06;;;18.47;47.69
25638;BME280;13496;51.040;13.680;2024-03-08T02:47:41;100257.31;;;18.47;47.84
25638;BME280;13496;51.040;13.680;2024-03-08T02:52:43;100256.47;;;18.46;47.84
25638;BME280;13496;51.040;13.680;2024-03-08T02:57:45;100246.16;;;18.45;47.65
25638;BME280;13496;51.040;13.680;2024-03-08T03:02:49;100243.72;;;18.43;47.79
25638;BME280;13496;51.040;13.680;2024-03-08T03:07:55;100241.91;;;18.44;47.67
25638;BME280;13496;51.040;13.680;2024-03-08T03:12:57;100240.25;;;18.43;47.69
25638;BME280;13496;51.040;13.680;2024-03-08T03:17:59;100243.88;;;18.42;47.73
25638;BME280;13496;51.040;13.680;2024-03-08T03:23:01;100239.63;;;18.41;47.89
25638;BME280;13496;51.040;13.680;2024-03-08T03:28:05;100238.97;;;18.38;48.13
25638;BME280;13496;51.040;13.680;2024-03-08T03:33:08;100235.38;;;18.40;48.04
25638;BME280;13496;51.040;13.680;2024-03-08T03:38:11;100233.91;;;18.37;48.12
25638;BME280;13496;51.040;13.680;2024-03-08T03:43:13;100240.97;;;18.36;47.94
25638;BME280;13496;51.040;13.680;2024-03-08T03:48:15;100234.91;;;18.36;48.18
25638;BME280;13496;51.040;13.680;2024-03-08T03:53:16;100230.81;;;18.33;47.93
25638;BME280;13496;51.040;13.680;2024-03-08T03:58:18;100239.50;;;18.34;47.90
25638;BME280;13496;51.040;13.680;2024-03-08T04:03:24;100227.16;;;18.34;48.14
25638;BME280;13496;51.040;13.680;2024-03-08T04:08:26;100222.25;;;18.31;48.01
25638;BME280;13496;51.040;13.680;2024-03-08T04:13:27;100218.81;;;18.31;48.01
25638;BME280;13496;51.040;13.680;2024-03-08T04:18:29;100225.88;;;18.30;48.07
25638;BME280;13496;51.040;13.680;2024-03-08T04:23:31;100225.88;;;18.30;48.04
25638;BME280;13496;51.040;13.680;2024-03-08T04:28:33;100224.25;;;18.29;47.99
25638;BME280;13496;51.040;13.680;2024-03-08T04:33:34;100213.09;;;18.27;48.03
25638;BME280;13496;51.040;13.680;2024-03-08T04:38:37;100212.28;;;18.27;48.29
25638;BME280;13496;51.040;13.680;2024-03-08T04:43:42;100213.44;;;18.24;48.08
25638;BME280;13496;51.040;13.680;2024-03-08T04:48:44;100213.28;;;18.26;47.81
25638;BME280;13496;51.040;13.680;2024-03-08T04:53:46;100210.81;;;18.24;48.32
25638;BME280;13496;51.040;13.680;2024-03-08T04:58:47;100210.00;;;18.24;48.09
25638;BME280;13496;51.040;13.680;2024-03-08T05:03:49;100206.56;;;18.23;48.03
25638;BME280;13496;51.040;13.680;2024-03-08T05:08:52;100197.06;;;18.22;48.35
25638;BME280;13496;51.040;13.680;2024-03-08T05:13:54;100198.69;;;18.23;48.00
25638;BME280;13496;51.040;13.680;2024-03-08T05:18:56;100196.41;;;18.20;48.21
25638;BME280;13496;51.040;13.680;2024-03-08T05:23:58;100198.06;;;18.21;48.27
25638;BME280;13496;51.040;13.680;2024-03-08T05:29:00;100191.16;;;18.20;48.15
25638;BME280;13496;51.040;13.680;2024-03-08T05:34:01;100192.16;;;18.19;48.22
25638;BME280;13496;51.040;13.680;2024-03-08T05:39:03;100191.34;;;18.19;48.13
25638;BME280;13496;51.040;13.680;2024-03-08T05:44:08;100185.28;;;18.18;48.20
25638;BME280;13496;51.040;13.680;2024-03-08T05:49:10;100184.47;;;18.18;48.45
25638;BME280;13496;51.040;13.680;2024-03-08T05:54:13;100185.28;;;18.18;47.92
25638;BME280;13496;51.040;13.680;2024-03-08T05:59:15;100186.28;;;18.17;48.01
25638;BME280;13496;51.040;13.680;2024-03-08T06:04:17;100188.91;;;18.17;47.99
25638;BME280;13496;51.040;13.680;2024-03-08T06:09:19;100192.69;;;18.14;48.17
25638;BME280;13496;51.040;13.680;2024-03-08T06:14:24;100199.75;;;18.14;47.83
25638;BME280;13496;51.040;13.680;2024-03-08T06:19:26;100197.75;;;18.16;48.37
25638;BME280;13496;51.040;13.680;2024-03-08T06:24:28;100188.25;;;18.15;48.20
25638;BME280;13496;51.040;13.680;2024-03-08T06:29:30;100187.59;;;18.13;48.34
25638;BME280;13496;51.040;13.680;2024-03-08T06:34:34;100185.63;;;18.15;47.90
25638;BME280;13496;51.040;13.680;2024-03-08T06:39:36;100187.25;;;18.16;48.00
25638;BME280;13496;51.040;13.680;2024-03-08T06:44:38;100179.00;;;18.19;48.14
25638;BME280;13496;51.040;13.680;2024-03-08T06:49:47;100184.75;;;18.23;47.71
25638;BME280;13496;51.040;13.680;2024-03-08T06:54:51;100182.59;;;18.26;47.82
25638;BME280;13496;51.040;13.680;2024-03-08T06:59:53;100175.34;;;18.28;47.72
25638;BME280;13496;51.040;13.680;2024-03-08T07:04:56;100179.25;;;18.32;47.74
25638;BME280;13496;51.040;13.680;2024-03-08T07:09:57;100169.38;;;18.34;47.66
25638;BME280;13496;51.040;13.680;2024-03-08T07:14:59;100175.28;;;18.36;47.64
25638;BME280;13496;51.040;13.680;2024-03-08T07:20:01;100163.44;;;18.41;47.52
25638;BME280;13496;51.040;13.680;2024-03-08T07:25:09;100170.78;;;18.45;47.71
25638;BME280;13496;51.040;13.680;2024-03-08T07:30:25;100165.19;;;18.48;48.08
25638;BME280;13496;51.040;13.680;2024-03-08T07:35:46;100158.84;;;18.57;47.75
25638;BME280;13496;51.040;13.680;2024-03-08T07:40:48;100157.31;;;18.63;47.85
25638;BME280;13496;51.040;13.680;2024-03-08T07:45:50;100158.25;;;18.70;47.89
25638;BME280;13496;51.040;13.680;2024-03-08T07:50:54;100150.66;;;18.75;47.90
25638;BME280;13496;51.040;13.680;2024-03-08T07:55:56;100150.56;;;18.83;47.60
25638;BME280;13496;51.040;13.680;2024-03-08T08:00:58;100142.34;;;18.86;47.76
25638;BME280;13496;51.040;13.680;2024-03-08T08:06:00;100136.16;;;18.94;47.54
25638;BME280;13496;51.040;13.680;2024-03-08T08:11:03;100133.84;;;18.99;47.50
25638;BME280;13496;51.040;13.680;2024-03-08T08:16:05;100128.03;;;19.04;47.58
25638;BME280;13496;51.040;13.680;2024-03-08T08:21:08;100124.84;;;19.08;47.76
25638;BME280;13496;51.040;13.680;2024-03-08T08:26:10;100117.25;;;19.14;47.73
25638;BME280;13496;51.040;13.680;2024-03-08T08:31:12;100112.44;;;19.17;47.34
25638;BME280;13496;51.040;13.680;2024-03-08T08:36:14;100116.50;;;19.20;47.49
25638;BME280;13496;51.040;13.680;2024-03-08T08:41:16;100114.97;;;19.25;47.53
25638;BME280;13496;51.040;13.680;2024-03-08T08:46:20;100110.97;;;19.29;47.73
25638;BME280;13496;51.040;13.680;2024-03-08T08:51:23;100106.97;;;19.33;47.31
25638;BME280;13496;51.040;13.680;2024-03-08T08:56:24;100092.63;;;19.36;47.10
25638;BME280;13496;51.040;13.680;2024-03-08T09:01:27;100094.06;;;19.39;46.98
25638;BME280;13496;51.040;13.680;2024-03-08T09:06:30;100080.28;;;19.37;47.43
25638;BME280;13496;51.040;13.680;2024-03-08T09:11:32;100068.75;;;19.38;47.44
25638;BME280;13496;51.040;13.680;2024-03-08T09:16:34;100067.75;;;19.39;47.21
25638;BME280;13496;51.040;13.680;2024-03-08T09:21:36;100069.75;;;19.37;47.54
25638;BME280;13496;51.040;13.680;2024-03-08T09:26:38;100062.13;;;19.42;47.44
25638;BME280;13496;51.040;13.680;2024-03-08T09:31:42;100055.66;;;19.44;47.59
25638;BME280;13496;51.040;13.680;2024-03-08T09:36:44;100049.03;;;19.48;46.93
25638;BME280;13496;51.040;13.680;2024-03-08T09:41:47;100044.38;;;19.50;47.01
25638;BME280;13496;51.040;13.680;2024-03-08T09:46:51;100049.72;;;19.57;47.10
25638;BME280;13496;51.040;13.680;2024-03-08T09:51:54;100040.44;;;19.61;47.27
25638;BME280;13496;51.040;13.680;2024-03-08T09:56:57;100046.19;;;19.65;47.26
25638;BME280;13496;51.040;13.680;2024-03-08T10:01:59;100042.38;;;19.67;46.92
25638;BME280;13496;51.040;13.680;2024-03-08T10:07:01;100028.63;;;19.72;47.12
25638;BME280;13496;51.040;13.680;2024-03-08T10:12:04;100024.81;;;19.74;46.76
25638;BME280;13496;51.040;13.680;2024-03-08T10:17:07;100021.81;;;19.77;47.01
25638;BME280;13496;51.040;13.680;2024-03-08T10:22:15;100003.00;;;19.80;46.89
25638;BME280;13496;51.040;13.680;2024-03-08T10:27:17;100002.59;;;19.83;47.07
25638;BME280;13496;51.040;13.680;2024-03-08T10:32:19;99997.97;;;19.86;46.94
25638;BME280;13496;51.040;13.680;2024-03-08T10:37:22;99995.97;;;19.88;46.77
25638;BME280;13496;51.040;13.680;2024-03-08T10:42:28;99982.81;;;19.88;47.18
25638;BME280;13496;51.040;13.680;2024-03-08T10:47:30;99982.81;;;19.88;46.93
25638;BME280;13496;51.040;13.680;2024-03-08T10:52:32;99976.53;;;19.89;46.90
25638;BME280;13496;51.040;13.680;2024-03-08T10:57:36;99970.25;;;19.90;47.06
25638;BME280;13496;51.040;13.680;2024-03-08T11:02:43;99971.88;;;19.91;47.06
25638;BME280;13496;51.040;13.680;2024-03-08T11:07:46;99969.88;;;19.93;47.33
25638;BME280;13496;51.040;13.680;2024-03-08T11:12:49;99957.53;;;19.93;47.21
25638;BME280;13496;51.040;13.680;2024-03-08T11:17:51;99957.53;;;19.93;47.07
25638;BME280;13496;51.040;13.680;2024-03-08T11:23:03;99943.16;;;19.96;47.07
25638;BME280;13496;51.040;13.680;2024-03-08T11:28:11;99931.63;;;19.97;47.14
25638;BME280;13496;51.040;13.680;2024-03-08T11:33:19;99933.22;;;19.98;47.27
25638;BME280;13496;51.040;13.680;2024-03-08T11:38:21;99933.06;;;19.99;47.00
25638;BME280;13496;51.040;13.680;2024-03-08T11:43:23;99916.25;;;20.00;47.10
25638;BME280;13496;51.040;13.680;2024-03-08T11:48:26;99906.50;;;20.01;46.95
25638;BME280;13496;51.040;13.680;2024-03-08T11:53:28;99901.88;;;20.03;46.92
25638;BME280;13496;51.040;13.680;2024-03-08T11:58:29;99895.59;;;20.04;47.02
25638;BME280;13496;51.040;13.680;2024-03-08T12:03:31;99896.22;;;20.06;46.80
25638;BME280;13496;51.040;13.680;2024-03-08T12:08:36;99879.22;;;20.09;46.80
25638;BME280;13496;51.040;13.680;2024-03-08T12:13:38;99880.00;;;20.09;47.11
25638;BME280;13496;51.040;13.680;2024-03-08T12:18:41;99870.09;;;20.11;46.71
25638;BME280;13496;51.040;13.680;2024-03-08T12:23:44;99863.22;;;20.17;46.75
25638;BME280;13496;51.040;13.680;2024-03-08T12:28:46;99862.03;;;20.19;46.57
25638;BME280;13496;51.040;13.680;2024-03-08T12:33:50;99850.31;;;20.22;46.81
25638;BME280;13496;51.040;13.680;2024-03-08T12:38:53;99849.91;;;20.25;46.49
25638;BME280;13496;51.040;13.680;2024-03-08T12:43:58;99837.34;;;20.27;46.71
25638;BME280;13496;51.040;13.680;2024-03-08T12:49:00;99825.84;;;20.41;46.64
25638;BME280;13496;51.040;13.680;2024-03-08T12:54:02;99816.03;;;20.83;45.59
25638;BME280;13496;51.040;13.680;2024-03-08T12:59:04;99816.66;;;20.92;45.46
25638;BME280;13496;51.040;13.680;2024-03-08T13:04:06;99805.91;;;21.07;45.29
25638;BME280;13496;51.040;13.680;2024-03-08T13:09:12;99795.16;;;21.15;44.66
25638;BME280;13496;51.040;13.680;2024-03-08T13:14:14;99800.00;;;21.05;44.83
25638;BME280;13496;51.040;13.680;2024-03-08T13:19:16;99772.81;;;20.97;44.70
25638;BME280;13496;51.040;13.680;2024-03-08T13:24:18;99781.16;;;20.88;44.99
25638;BME280;13496;51.040;13.680;2024-03-08T13:29:20;99771.81;;;20.78;45.28
25638;BME280;13496;51.040;13.680;2024-03-08T13:34:22;99766.72;;;20.70;45.04
25638;BME280;13496;51.040;13.680;2024-03-08T13:39:29;99758.00;;;20.63;44.96
25638;BME280;13496;51.040;13.680;2024-03-08T13:44:33;99765.09;;;20.56;44.94
25638;BME280;13496;51.040;13.680;2024-03-08T13:49:35;99755.34;;;20.50;45.16
25638;BME280;13496;51.040;13.680;2024-03-08T13:54:38;99742.72;;;20.45;45.32
25638;BME280;13496;51.040;13.680;2024-03-08T13:59:40;99741.50;;;20.41;45.48
25638;BME280;13496;51.040;13.680;2024-03-08T14:04:42;99734.63;;;20.40;45.75
25638;BME280;13496;51.040;13.680;2024-03-08T14:09:51;99733.81;;;20.40;45.91
25638;BME280;13496;51.040;13.680;2024-03-08T14:14:54;99728.56;;;20.40;45.40
25638;BME280;13496;51.040;13.680;2024-03-08T14:19:56;99721.84;;;20.37;45.58
25638;BME280;13496;51.040;13.680;2024-03-08T14:24:58;99716.16;;;20.34;45.68
25638;BME280;13496;51.040;13.680;2024-03-08T14:30:00;99712.31;;;20.29;45.54
25638;BME280;13496;51.040;13.680;2024-03-08T14:35:01;99711.50;;;20.29;45.83
25638;BME280;13496;51.040;13.680;2024-03-08T14:40:04;99701.16;;;20.27;45.65
25638;BME280;13496;51.040;13.680;2024-03-08T14:45:07;99698.91;;;20.24;46.03
25638;BME280;13496;51.040;13.680;2024-03-08T14:50:09;99688.56;;;20.23;45.74
25638;BME280;13496;51.040;13.680;2024-03-08T14:55:11;99685.13;;;20.16;45.95
25638;BME280;13496;51.040;13.680;2024-03-08T15:00:18;99681.88;;;20.14;45.64
25638;BME280;13496;51.040;13.680;2024-03-08T15:05:28;99686.31;;;20.13;45.86
25638;BME280;13496;51.040;13.680;2024-03-08T15:10:33;99684.69;;;20.12;45.76
25638;BME280;13496;51.040;13.680;2024-03-08T15:15:35;99675.19;;;20.11;45.70
25638;BME280;13496;51.040;13.680;2024-03-08T15:20:37;99666.06;;;20.07;45.99
25638;BME280;13496;51.040;13.680;2024-03-08T15:25:38;99666.88;;;20.08;45.64
25638;BME280;13496;51.040;13.680;2024-03-08T15:30:43;99661.81;;;20.06;45.50
25638;BME280;13496;51.040;13.680;2024-03-08T15:35:48;99650.66;;;20.04;45.85
25638;BME280;13496;51.040;13.680;2024-03-08T15:40:52;99651.47;;;20.04;45.96
25638;BME280;13496;51.040;13.680;2024-03-08T15:45:55;99652.47;;;20.03;45.81
25638;BME280;13496;51.040;13.680;2024-03-08T15:50:59;99651.25;;;19.99;46.04
25638;BME280;13496;51.040;13.680;2024-03-08T15:56:05;99645.19;;;19.99;45.59
25638;BME280;13496;51.040;13.680;2024-03-08T16:01:10;99638.91;;;20.00;45.99
25638;BME280;13496;51.040;13.680;2024-03-08T16:06:18;99645.59;;;19.96;45.85
25638;BME280;13496;51.040;13.680;2024-03-08T16:11:22;99639.28;;;19.97;45.80
25638;BME280;13496;51.040;13.680;2024-03-08T16:16:24;99633.22;;;19.96;45.80
25638;BME280;13496;51.040;13.680;2024-03-08T16:21:28;99626.31;;;19.89;46.16
25638;BME280;13496;51.040;13.680;2024-03-08T16:26:29;99627.53;;;19.93;46.11
25638;BME280;13496;51.040;13.680;2024-03-08T16:31:36;99637.66;;;19.89;45.72
25638;BME280;13496;51.040;13.680;2024-03-08T16:36:39;99625.50;;;19.88;46.25
25638;BME280;13496;51.040;13.680;2024-03-08T16:41:41;99631.97;;;19.86;45.75
25638;BME280;13496;51.040;13.680;2024-03-08T16:46:44;99633.00;;;19.85;45.86
25638;BME280;13496;51.040;13.680;2024-03-08T16:51:46;99631.34;;;19.83;46.18
25638;BME280;13496;51.040;13.680;2024-03-08T16:56:48;99635.81;;;19.83;46.13
25638;BME280;13496;51.040;13.680;2024-03-08T17:01:51;99635.81;;;19.83;45.91
25638;BME280;13496;51.040;13.680;2024-03-08T17:06:53;99629.75;;;19.82;46.06
25638;BME280;13496;51.040;13.680;2024-03-08T17:11:55;99636.41;;;19.78;46.13
25638;BME280;13496;51.040;13.680;2024-03-08T17:16:57;99630.13;;;19.79;46.25
25638;BME280;13496;51.040;13.680;2024-03-08T17:22:00;99638.44;;;19.76;46.16
25638;BME280;13496;51.040;13.680;2024-03-08T17:27:05;99640.25;;;19.76;45.94
25638;BME280;13496;51.040;13.680;2024-03-08T17:32:08;99636.81;;;19.75;46.30
25638;BME280;13496;51.040;13.680;2024-03-08T17:37:09;99627.91;;;19.70;46.32
25638;BME280;13496;51.040;13.680;2024-03-08T17:42:12;99626.25;;;19.69;46.13
25638;BME280;13496;51.040;13.680;2024-03-08T17:47:14;99632.94;;;19.71;46.16
25638;BME280;13496;51.040;13.680;2024-03-08T17:52:17;99626.25;;;19.69;46.37
25638;BME280;13496;51.040;13.680;2024-03-08T17:57:19;99614.09;;;19.68;46.51
25638;BME280;13496;51.040;13.680;2024-03-08T18:02:21;99622.22;;;19.66;46.40
25638;BME280;13496;51.040;13.680;2024-03-08T18:07:23;99622.22;;;19.66;46.26
25638;BME280;13496;51.040;13.680;2024-03-08T18:12:24;99624.22;;;19.64;46.60
25638;BME280;13496;51.040;13.680;2024-03-08T18:17:26;99616.53;;;19.63;46.41
25638;BME280;13496;51.040;13.680;2024-03-08T18:22:29;99615.72;;;19.62;46.31
25638;BME280;13496;51.040;13.680;2024-03-08T18:27:31;99602.31;;;19.57;46.80
25638;BME280;13496;51.040;13.680;2024-03-08T18:32:33;99604.72;;;19.52;46.64
25638;BME280;13496;51.040;13.680;2024-03-08T18:37:35;99603.91;;;19.51;46.51
25638;BME280;13496;51.040;13.680;2024-03-08T18:42:42;99599.84;;;19.49;46.73
25638;BME280;13496;51.040;13.680;2024-03-08T18:47:47;99597.00;;;19.50;47.00
25638;BME280;13496;51.040;13.680;2024-03-08T18:52:50;99594.59;;;19.49;46.87
25638;BME280;13496;51.040;13.680;2024-03-08T18:57:52;99588.53;;;19.48;46.59
25638;BME280;13496;51.040;13.680;2024-03-08T19:02:55;99587.72;;;19.48;46.96
25638;BME280;13496;51.040;13.680;2024-03-08T19:08:06;99584.06;;;19.49;46.68
25638;BME280;13496;51.040;13.680;2024-03-08T19:13:09;99581.44;;;19.49;46.79
25638;BME280;13496;51.040;13.680;2024-03-08T19:18:13;99573.53;;;19.49;47.10
25638;BME280;13496;51.040;13.680;2024-03-08T19:23:15;99580.84;;;19.47;46.99
25638;BME280;13496;51.040;13.680;2024-03-08T19:28:17;99577.38;;;19.46;47.03
25638;BME280;13496;51.040;13.680;2024-03-08T19:33:21;99575.56;;;19.47;46.99
25638;BME280;13496;51.040;13.680;2024-03-08T19:38:23;99572.09;;;19.46;46.82
25638;BME280;13496;51.040;13.680;2024-03-08T19:43:25;99567.06;;;19.45;46.79
25638;BME280;13496;51.040;13.680;2024-03-08T19:48:28;99578.59;;;19.44;46.71
25638;BME280;13496;51.040;13.680;2024-03-08T19:53:30;99570.88;;;19.42;47.15
25638;BME280;13496;51.040;13.680;2024-03-08T19:58:34;99564.63;;;19.43;46.95
25638;BME280;13496;51.040;13.680;2024-03-08T20:03:36;99569.91;;;19.43;46.96
25638;BME280;13496;51.040;13.680;2024-03-08T20:08:38;99566.84;;;19.40;46.70
25638;BME280;13496;51.040;13.680;2024-03-08T20:13:42;99569.47;;;19.40;46.76
25638;BME280;13496;51.040;13.680;2024-03-08T20:18:47;99561.59;;;19.40;47.16
25638;BME280;13496;51.040;13.680;2024-03-08T20:23:49;99563.19;;;19.41;47.18
25638;BME280;13496;51.040;13.680;2024-03-08T20:28:51;99562.41;;;19.40;47.26
25638;BME280;13496;51.040;13.680;2024-03-08T20:33:53;99554.88;;;19.37;47.28
25638;BME280;13496;51.040;13.680;2024-03-08T20:38:55;99560.16;;;19.37;46.92
25638;BME280;13496;51.040;13.680;2024-03-08T20:43:57;99545.19;;;19.38;47.00
25638;BME280;13496;51.040;13.680;2024-03-08T20:48:58;99550.03;;;19.34;46.92
25638;BME280;13496;51.040;13.680;2024-03-08T20:54:02;99540.13;;;19.36;46.94
25638;BME280;13496;51.040;13.680;2024-03-08T20:59:06;99541.94;;;19.36;47.29
25638;BME280;13496;51.040;13.680;2024-03-08T21:04:08;99544.56;;;19.36;46.98
25638;BME280;13496;51.040;13.680;2024-03-08T21:09:14;99541.31;;;19.33;46.94
25638;BME280;13496;51.040;13.680;2024-03-08T21:14:16;99527.34;;;19.33;47.20
25638;BME280;13496;51.040;13.680;2024-03-08T21:19:17;99531.81;;;19.32;46.96
25638;BME280;13496;51.040;13.680;2024-03-08T21:24:21;99533.44;;;19.33;46.99
25638;BME280;13496;51.040;13.680;2024-03-08T21:29:22;99524.09;;;19.31;46.99
25638;BME280;13496;51.040;13.680;2024-03-08T21:34:24;99516.22;;;19.31;46.84
25638;BME280;13496;51.040;13.680;2024-03-08T21:39:27;99505.09;;;19.29;46.82
25638;BME280;13496;51.040;13.680;2024-03-08T21:44:29;99505.09;;;19.29;46.67
25638;BME280;13496;51.040;13.680;2024-03-08T21:49:31;99502.84;;;19.26;47.18
25638;BME280;13496;51.040;13.680;2024-03-08T21:54:33;99503.88;;;19.25;47.17
25638;BME280;13496;51.040;13.680;2024-03-08T21:59:36;99490.09;;;19.23;47.08
25638;BME280;13496;51.040;13.680;2024-03-08T22:04:40;99482.00;;;19.24;46.81
25638;BME280;13496;51.040;13.680;2024-03-08T22:09:42;99470.66;;;19.24;47.17
25638;BME280;13496;51.040;13.680;2024-03-08T22:14:44;99470.25;;;19.20;46.87
25638;BME280;13496;51.040;13.680;2024-03-08T22:19:46;99468.84;;;19.18;47.15
25638;BME280;13496;51.040;13.680;2024-03-08T22:24:48;99454.91;;;19.17;47.24
25638;BME280;13496;51.040;13.680;2024-03-08T22:29:54;99450.44;;;19.18;47.25
25638;BME280;13496;51.040;13.680;2024-03-08T22:34:56;99447.81;;;19.18;47.14
25638;BME280;13496;51.040;13.680;2024-03-08T22:39:58;99448.78;;;19.17;46.79
25638;BME280;13496;51.040;13.680;2024-03-08T22:45:01;99439.91;;;19.18;47.17
25638;BME280;13496;51.040;13.680;2024-03-08T22:50:05;99430.22;;;19.18;47.01
25638;BME280;13496;51.040;13.680;2024-03-08T22:55:09;99432.22;;;19.16;46.92
25638;BME280;13496;51.040;13.680;2024-03-08T23:00:11;99422.72;;;19.15;47.22
25638;BME280;13496;51.040;13.680;2024-03-08T23:05:36;99422.09;;;19.13;46.82
25638;BME280;13496;51.040;13.680;2024-03-08T23:10:47;99414.00;;;19.15;47.05
25638;BME280;13496;51.040;13.680;2024-03-08T23:15:51;99410.97;;;19.11;46.92
25638;BME280;13496;51.040;13.680;2024-03-08T23:20:53;99393.38;;;19.12;46.65
25638;BME280;13496;51.040;13.680;2024-03-08T23:25:57;99395.19;;;19.11;47.02
25638;BME280;13496;51.040;13.680;2024-03-08T23:30:59;99400.44;;;19.11;46.99
25638;BME280;13496;51.040;13.680;2024-03-08T23:36:01;99398.22;;;19.08;46.56
25638;BME280;13496;51.040;13.680;2024-03-08T23:41:03;99398.22;;;19.08;46.78
25638;BME280;13496;51.040;13.680;2024-03-08T23:46:05;99394.56;;;19.09;47.11
25638;BME280;13496;51.040;13.680;2024-03-08T23:51:07;99392.16;;;19.07;46.87
25638;BME280;13496;51.040;13.680;2024-03-08T23:56:10;99384.47;;;19.06;46.62
